sensor_id;sensor_type;location;lat;lon;timestamp;P1;durP1;ratioP1;P2;durP2;ratioP2
85529;SDS011;75951;48.230;16.346;2024-01-30T00:02:24;27.8;;;28.8;;
85529;SDS011;75951;48.230;16.346;2024-01-30T00:12:25;29.1;;;29.7;;
85529;SDS011;75951;48.230;16.346;2024-01-30T00:22:24;29.2;;;30.0;;
85529;SDS011;75951;48.230;16.346;2024-01-30T00:32:24;28.4;;;29.2;;
85529;SDS011;75951;48.230;16.346;2024-01-30T00:42:25;28.1;;;28.8;;
85529;SDS011;75951;48.230;16.346;2024-01-30T00:52:24;29.1;;;30.2;;
85529;SDS011;75951;48.230;16.346;2024-01-30T01:02:24;28.9;;;29.6;;
85529;SDS011;75951;48.230;16.346;2024-01-30T01:12:26;28.0;;;28.1;;
85529;SDS011;75951;48.230;16.346;2024-01-30T01:22:24;26.8;;;26.9;;
85529;SDS011;75951;48.230;16.346;2024-01-30T01:32:24;27.8;;;28.6;;
85529;SDS011;75951;48.230;16.346;2024-01-30T01:42:24;26.5;;;27.0;;
85529;SDS011;75951;48.230;16.346;2024-01-30T01:52:24;28.5;;;29.1;;
85529;SDS011;75951;48.230;16.346;2024-01-30T02:02:24;27.6;;;28.0;;
85529;SDS011;75951;48.230;16.346;2024-01-30T02:12:24;27.8;;;28.7;;
85529;SDS011;75951;48.230;16.346;2024-01-30T02:22:24;27.4;;;27.7;;
85529;SDS011;75951;48.230;16.346;2024-01-30T02:32:24;27.3;;;28.2;;
85529;SDS011;75951;48.230;16.346;2024-01-30T02:42:24;28.3;;;29.0;;
85529;SDS011;75951;48.230;16.346;2024-01-30T02:52:24;27.7;;;28.6;;
85529;SDS011;75951;48.230;16.346;2024-01-30T03:02:24;25.6;;;26.2;;
85529;SDS011;75951;48.230;16.346;2024-01-30T03:12:24;27.9;;;28.6;;
85529;SDS011;75951;48.230;16.346;2024-01-30T03:22:24;26.9;;;27.4;;
85529;SDS011;75951;48.230;16.346;2024-01-30T03:32:24;27.4;;;27.5;;
85529;SDS011;75951;48.230;16.346;2024-01-30T03:42:24;28.9;;;29.8;;
85529;SDS011;75951;48.230;16.346;2024-01-30T03:52:24;28.3;;;29.3;;
85529;SDS011;75951;48.230;16.346;2024-01-30T04:02:24;28.6;;;29.3;;
85529;SDS011;75951;48.230;16.346;2024-01-30T04:12:24;29.0;;;29.9;;
85529;SDS011;75951;48.230;16.346;2024-01-30T04:22:25;31.4;;;32.3;;
85529;SDS011;75951;48.230;16.346;2024-01-30T04:32:24;31.2;;;32.1;;
85529;SDS011;75951;48.230;16.346;2024-01-30T04:42:24;31.5;;;32.1;;
85529;SDS011;75951;48.230;16.346;2024-01-30T04:52:24;32.1;;;33.0;;
85529;SDS011;75951;48.230;16.346;2024-01-30T05:02:24;31.2;;;32.0;;
85529;SDS011;75951;48.230;16.346;2024-01-30T05:12:25;30.8;;;31.6;;
85529;SDS011;75951;48.230;16.346;2024-01-30T05:22:24;31.3;;;31.4;;
85529;SDS011;75951;48.230;16.346;2024-01-30T05:32:24;31.6;;;32.4;;
85529;SDS011;75951;48.230;16.346;2024-01-30T05:42:24;32.6;;;33.6;;
85529;SDS011;75951;48.230;16.346;2024-01-30T05:52:24;35.6;;;35.8;;
85529;SDS011;75951;48.230;16.346;2024-01-30T06:02:24;35.9;;;36.8;;
85529;SDS011;75951;48.230;16.346;2024-01-30T06:12:24;34.3;;;35.3;;
85529;SDS011;75951;48.230;16.346;2024-01-30T06:22:24;33.8;;;35.0;;
85529;SDS011;75951;48.230;16.346;2024-01-30T06:32:24;35.3;;;36.6;;
85529;SDS011;75951;48.230;16.346;2024-01-30T06:42:24;34.0;;;35.1;;
85529;SDS011;75951;48.230;16.346;2024-01-30T06:52:24;35.1;;;36.3;;
85529;SDS011;75951;48.230;16.346;2024-01-30T07:02:24;34.8;;;35.8;;
85529;SDS011;75951;48.230;16.346;2024-01-30T07:12:24;33.8;;;34.9;;
85529;SDS011;75951;48.230;16.346;2024-01-30T07:22:24;35.8;;;36.8;;
85529;SDS011;75951;48.230;16.346;2024-01-30T07:32:24;35.0;;;36.1;;
85529;SDS011;75951;48.230;16.346;2024-01-30T07:42:24;34.1;;;34.8;;
85529;SDS011;75951;48.230;16.346;2024-01-30T07:52:24;34.7;;;35.9;;
85529;SDS011;75951;48.230;16.346;2024-01-30T08:02:24;33.1;;;34.0;;
85529;SDS011;75951;48.230;16.346;2024-01-30T08:12:24;34.6;;;35.7;;
85529;SDS011;75951;48.230;16.346;2024-01-30T08:22:24;33.0;;;33.9;;
85529;SDS011;75951;48.230;16.346;2024-01-30T08:32:24;31.9;;;32.9;;
85529;SDS011;75951;48.230;16.346;2024-01-30T08:42:24;28.5;;;29.3;;
85529;SDS011;75951;48.230;16.346;2024-01-30T08:52:24;29.8;;;30.5;;
85529;SDS011;75951;48.230;16.346;2024-01-30T09:02:24;30.6;;;31.5;;
85529;SDS011;75951;48.230;16.346;2024-01-30T09:12:24;32.3;;;33.3;;
85529;SDS011;75951;48.230;16.346;2024-01-30T09:22:24;30.0;;;31.1;;
85529;SDS011;75951;48.230;16.346;2024-01-30T09:32:24;31.0;;;32.0;;
85529;SDS011;75951;48.230;16.346;2024-01-30T09:42:26;31.2;;;32.2;;
85529;SDS011;75951;48.230;16.346;2024-01-30T09:52:24;29.8;;;30.4;;
85529;SDS011;75951;48.230;16.346;2024-01-30T10:02:24;32.0;;;32.9;;
85529;SDS011;75951;48.230;16.346;2024-01-30T10:12:26;29.9;;;30.7;;
85529;SDS011;75951;48.230;16.346;2024-01-30T10:22:24;27.1;;;27.6;;
85529;SDS011;75951;48.230;16.346;2024-01-30T10:32:25;28.6;;;29.5;;
85529;SDS011;75951;48.230;16.346;2024-01-30T10:42:25;28.5;;;28.9;;
85529;SDS011;75951;48.230;16.346;2024-01-30T10:52:24;25.3;;;25.9;;
85529;SDS011;75951;48.230;16.346;2024-01-30T11:02:24;32.4;;;32.9;;
85529;SDS011;75951;48.230;16.346;2024-01-30T11:12:24;25.2;;;25.8;;
85529;SDS011;75951;48.230;16.346;2024-01-30T11:22:24;23.1;;;23.6;;
85529;SDS011;75951;48.230;16.346;2024-01-30T11:32:25;23.0;;;23.6;;
85529;SDS011;75951;48.230;16.346;2024-01-30T11:42:24;23.2;;;24.0;;
85529;SDS011;75951;48.230;16.346;2024-01-30T11:52:24;21.5;;;21.5;;
85529;SDS011;75951;48.230;16.346;2024-01-30T12:02:24;20.2;;;20.2;;
85529;SDS011;75951;48.230;16.346;2024-01-30T12:12:24;21.4;;;22.1;;
85529;SDS011;75951;48.230;16.346;2024-01-30T12:22:24;21.4;;;21.9;;
85529;SDS011;75951;48.230;16.346;2024-01-30T12:32:24;21.0;;;21.2;;
85529;SDS011;75951;48.230;16.346;2024-01-30T12:42:24;21.5;;;22.2;;
85529;SDS011;75951;48.230;16.346;2024-01-30T12:52:24;22.0;;;22.7;;
85529;SDS011;75951;48.230;16.346;2024-01-30T13:02:24;21.5;;;22.1;;
85529;SDS011;75951;48.230;16.346;2024-01-30T13:12:24;22.6;;;23.0;;
85529;SDS011;75951;48.230;16.346;2024-01-30T13:22:24;21.9;;;22.3;;
85529;SDS011;75951;48.230;16.346;2024-01-30T13:32:24;22.5;;;22.5;;
85529;SDS011;75951;48.230;16.346;2024-01-30T13:42:24;20.9;;;21.4;;
85529;SDS011;75951;48.230;16.346;2024-01-30T13:52:24;21.7;;;22.3;;
85529;SDS011;75951;48.230;16.346;2024-01-30T14:02:24;22.0;;;22.7;;
85529;SDS011;75951;48.230;16.346;2024-01-30T14:12:24;21.2;;;21.7;;
85529;SDS011;75951;48.230;16.346;2024-01-30T14:22:24;21.1;;;21.6;;
85529;SDS011;75951;48.230;16.346;2024-01-30T14:32:24;21.1;;;21.1;;
85529;SDS011;75951;48.230;16.346;2024-01-30T14:42:24;20.1;;;20.7;;
85529;SDS011;75951;48.230;16.346;2024-01-30T14:52:24;20.6;;;20.6;;
85529;SDS011;75951;48.230;16.346;2024-01-30T15:02:24;19.9;;;19.9;;
85529;SDS011;75951;48.230;16.346;2024-01-30T15:12:24;21.3;;;21.4;;
85529;SDS011;75951;48.230;16.346;2024-01-30T15:22:24;20.1;;;20.2;;
85529;SDS011;75951;48.230;16.346;2024-01-30T15:32:24;21.3;;;21.8;;
85529;SDS011;75951;48.230;16.346;2024-01-30T15:42:24;21.2;;;21.4;;
85529;SDS011;75951;48.230;16.346;2024-01-30T15:52:24;21.0;;;21.1;;
85529;SDS011;75951;48.230;16.346;2024-01-30T16:02:24;20.8;;;21.4;;
85529;SDS011;75951;48.230;16.346;2024-01-30T16:12:24;21.5;;;22.1;;
85529;SDS011;75951;48.230;16.346;2024-01-30T16:22:24;22.8;;;23.2;;
85529;SDS011;75951;48.230;16.346;2024-01-30T16:32:24;20.9;;;21.0;;
85529;SDS011;75951;48.230;16.346;2024-01-30T16:42:24;21.1;;;21.2;;
85529;SDS011;75951;48.230;16.346;2024-01-30T16:52:24;26.9;;;27.4;;
85529;SDS011;75951;48.230;16.346;2024-01-30T17:02:24;23.0;;;23.2;;
85529;SDS011;75951;48.230;16.346;2024-01-30T17:12:24;23.1;;;24.0;;
85529;SDS011;75951;48.230;16.346;2024-01-30T17:22:24;22.4;;;23.1;;
85529;SDS011;75951;48.230;16.346;2024-01-30T17:32:24;24.6;;;25.6;;
85529;SDS011;75951;48.230;16.346;2024-01-30T17:42:24;22.2;;;22.5;;
85529;SDS011;75951;48.230;16.346;2024-01-30T17:52:24;22.9;;;23.7;;
85529;SDS011;75951;48.230;16.346;2024-01-30T18:02:24;22.3;;;22.3;;
85529;SDS011;75951;48.230;16.346;2024-01-30T18:12:24;23.5;;;24.2;;
85529;SDS011;75951;48.230;16.346;2024-01-30T18:22:24;24.8;;;25.2;;
85529;SDS011;75951;48.230;16.346;2024-01-30T18:32:24;23.8;;;24.6;;
85529;SDS011;75951;48.230;16.346;2024-01-30T18:42:24;24.8;;;25.5;;
85529;SDS011;75951;48.230;16.346;2024-01-30T18:52:24;26.0;;;26.6;;
85529;SDS011;75951;48.230;16.346;2024-01-30T19:02:25;28.1;;;29.1;;
85529;SDS011;75951;48.230;16.346;2024-01-30T19:12:25;26.5;;;27.3;;
85529;SDS011;75951;48.230;16.346;2024-01-30T19:22:25;28.4;;;29.2;;
85529;SDS011;75951;48.230;16.346;2024-01-30T19:32:25;28.7;;;29.5;;
85529;SDS011;75951;48.230;16.346;2024-01-30T19:42:25;30.0;;;30.7;;
85529;SDS011;75951;48.230;16.346;2024-01-30T19:52:25;34.5;;;35.5;;
85529;SDS011;75951;48.230;16.346;2024-01-30T20:02:25;29.2;;;30.4;;
85529;SDS011;75951;48.230;16.346;2024-01-30T20:12:24;29.3;;;30.3;;
85529;SDS011;75951;48.230;16.346;2024-01-30T20:22:24;29.9;;;30.7;;
85529;SDS011;75951;48.230;16.346;2024-01-30T20:32:24;31.4;;;32.4;;
85529;SDS011;75951;48.230;16.346;2024-01-30T20:42:25;30.8;;;31.4;;
85529;SDS011;75951;48.230;16.346;2024-01-30T20:52:24;32.0;;;33.1;;
85529;SDS011;75951;48.230;16.346;2024-01-30T21:02:24;31.2;;;32.3;;
85529;SDS011;75951;48.230;16.346;2024-01-30T21:12:24;30.7;;;30.8;;
85529;SDS011;75951;48.230;16.346;2024-01-30T21:22:24;31.7;;;32.4;;
85529;SDS011;75951;48.230;16.346;2024-01-30T21:32:24;32.5;;;33.4;;
85529;SDS011;75951;48.230;16.346;2024-01-30T21:42:24;32.6;;;32.7;;
85529;SDS011;75951;48.230;16.346;2024-01-30T21:52:24;33.4;;;34.5;;
85529;SDS011;75951;48.230;16.346;2024-01-30T22:02:24;32.3;;;32.8;;
85529;SDS011;75951;48.230;16.346;2024-01-30T22:12:24;35.4;;;36.7;;
85529;SDS011;75951;48.230;16.346;2024-01-30T22:22:24;34.2;;;35.1;;
85529;SDS011;75951;48.230;16.346;2024-01-30T22:32:24;37.3;;;38.7;;
85529;SDS011;75951;48.230;16.346;2024-01-30T22:42:24;35.6;;;37.1;;
85529;SDS011;75951;48.230;16.346;2024-01-30T22:52:24;37.8;;;39.1;;
85529;SDS011;75951;48.230;16.346;2024-01-30T23:02:24;36.3;;;37.6;;
85529;SDS011;75951;48.230;16.346;2024-01-30T23:12:24;35.6;;;36.4;;
85529;SDS011;75951;48.230;16.346;2024-01-30T23:22:24;37.1;;;38.0;;
85529;SDS011;75951;48.230;16.346;2024-01-30T23:32:24;37.6;;;39.4;;
85529;SDS011;75951;48.230;16.346;2024-01-30T23:42:24;37.4;;;38.3;;
85529;SDS011;75951;48.230;16.346;2024-01-30T23:52:24;37.6;;;38.7;;
